sensor_id;sensor_type;location;lat;lon;timestamp;pressure;altitude;pressure_sealevel;temperature;humidity
6833;BME280;3454;42.654;23.378;2022-10-16T00:01:15;95085.94;;;11.69;100.00
6833;BME280;3454;42.654;23.378;2022-10-16T00:03:42;95107.06;;;11.80;100.00
6833;BME280;3454;42.654;23.378;2022-10-16T00:06:08;95086.28;;;11.64;100.00
6833;BME280;3454;42.654;23.378;2022-10-16T00:08:35;95099.50;;;11.69;100.00
6833;BME280;3454;42.654;23.378;2022-10-16T00:11:06;95085.06;;;11.59;100.00
6833;BME280;3454;42.654;23.378;2022-10-16T00:13:35;95071.09;;;11.33;100.00
6833;BME280;3454;42.654;23.378;2022-10-16T00:16:01;95066.75;;;11.44;100.00
6833;BME280;3454;42.654;23.378;2022-10-16T00:18:27;95074.50;;;11.43;100.00
6833;BME280;3454;42.654;23.378;2022-10-16T00:20:54;95077.47;;;11.48;100.00
6833;BME280;3454;42.654;23.378;2022-10-16T00:23:20;95088.09;;;11.53;100.00
6833;BME280;3454;42.654;23.378;2022-10-16T00:25:57;95085.78;;;11.50;100.00
6833;BME280;3454;42.654;23.378;2022-10-16T00:28:23;95085.66;;;11.51;100.00
6833;BME280;3454;42.654;23.378;2022-10-16T00:30:49;95101.84;;;11.61;100.00
6833;BME280;3454;42.654;23.378;2022-10-16T00:33:14;95099.75;;;11.55;100.00
6833;BME280;3454;42.654;23.378;2022-10-16T00:35:39;95109.84;;;11.57;100.00
6833;BME280;3454;42.654;23.378;2022-10-16T00:38:05;95113.44;;;11.54;100.00
6833;BME280;3454;42.654;23.378;2022-10-16T00:40:30;95120.81;;;11.57;100.00
6833;BME280;3454;42.654;23.378;2022-10-16T00:42:57;95104.44;;;11.50;100.00
6833;BME280;3454;42.654;23.378;2022-10-16T00:45:22;95130.63;;;11.62;100.00
6833;BME280;3454;42.654;23.378;2022-10-16T00:47:48;95099.84;;;11.44;100.00
6833;BME280;3454;42.654;23.378;2022-10-16T00:50:33;95117.66;;;11.44;100.00
6833;BME280;3454;42.654;23.378;2022-10-16T00:53:01;95101.19;;;11.28;100.00
6833;BME280;3454;42.654;23.378;2022-10-16T00:55:27;95094.31;;;11.19;100.00
6833;BME280;3454;42.654;23.378;2022-10-16T00:57:55;95100.88;;;11.21;100.00
6833;BME280;3454;42.654;23.378;2022-10-16T01:00:23;95125.91;;;11.37;100.00
6833;BME280;3454;42.654;23.378;2022-10-16T01:02:58;95100.66;;;11.13;100.00
6833;BME280;3454;42.654;23.378;2022-10-16T01:05:38;95101.28;;;11.06;100.00
6833;BME280;3454;42.654;23.378;2022-10-16T01:08:13;95134.72;;;11.33;100.00
6833;BME280;3454;42.654;23.378;2022-10-16T01:10:52;95140.50;;;11.35;100.00
6833;BME280;3454;42.654;23.378;2022-10-16T01:13:33;95125.88;;;11.16;100.00
6833;BME280;3454;42.654;23.378;2022-10-16T01:16:07;95091.31;;;10.82;100.00
6833;BME280;3454;42.654;23.378;2022-10-16T01:18:54;95108.66;;;10.77;100.00
6833;BME280;3454;42.654;23.378;2022-10-16T01:21:30;95095.84;;;10.78;100.00
6833;BME280;3454;42.654;23.378;2022-10-16T01:27:15;95107.00;;;10.98;100.00
6833;BME280;3454;42.654;23.378;2022-10-16T01:30:43;95116.06;;;10.80;100.00
6833;BME280;3454;42.654;23.378;2022-10-16T01:35:15;95087.72;;;10.42;100.00
6833;BME280;3454;42.654;23.378;2022-10-16T01:40:16;95120.50;;;10.45;100.00
6833;BME280;3454;42.654;23.378;2022-10-16T01:42:52;95132.66;;;10.41;100.00
6833;BME280;3454;42.654;23.378;2022-10-16T01:45:21;95118.47;;;10.17;100.00
6833;BME280;3454;42.654;23.378;2022-10-16T01:47:48;95123.31;;;10.20;100.00
6833;BME280;3454;42.654;23.378;2022-10-16T01:50:16;95125.50;;;10.13;100.00
6833;BME280;3454;42.654;23.378;2022-10-16T01:52:45;95104.13;;;10.04;100.00
6833;BME280;3454;42.654;23.378;2022-10-16T01:55:17;95134.16;;;10.10;100.00
6833;BME280;3454;42.654;23.378;2022-10-16T01:57:46;95146.53;;;10.15;100.00
6833;BME280;3454;42.654;23.378;2022-10-16T02:00:14;95138.09;;;10.14;100.00
6833;BME280;3454;42.654;23.378;2022-10-16T02:02:42;95142.84;;;10.19;100.00
6833;BME280;3454;42.654;23.378;2022-10-16T02:07:57;95152.63;;;10.12;100.00
6833;BME280;3454;42.654;23.378;2022-10-16T02:10:24;95135.56;;;10.26;100.00
6833;BME280;3454;42.654;23.378;2022-10-16T02:15:34;95154.72;;;10.30;100.00
6833;BME280;3454;42.654;23.378;2022-10-16T02:18:00;95162.34;;;10.19;100.00
6833;BME280;3454;42.654;23.378;2022-10-16T02:20:28;95164.16;;;10.05;100.00
6833;BME280;3454;42.654;23.378;2022-10-16T02:22:58;95170.53;;;10.11;100.00
6833;BME280;3454;42.654;23.378;2022-10-16T02:25:30;95185.53;;;10.14;100.00
6833;BME280;3454;42.654;23.378;2022-10-16T02:28:04;95144.50;;;9.85;100.00
6833;BME280;3454;42.654;23.378;2022-10-16T02:30:56;95134.13;;;9.88;100.00
6833;BME280;3454;42.654;23.378;2022-10-16T02:33:21;95127.66;;;9.84;100.00
6833;BME280;3454;42.654;23.378;2022-10-16T02:35:48;95151.56;;;9.93;100.00
6833;BME280;3454;42.654;23.378;2022-10-16T02:38:16;95170.16;;;9.93;100.00
6833;BME280;3454;42.654;23.378;2022-10-16T02:40:43;95164.00;;;9.85;100.00
6833;BME280;3454;42.654;23.378;2022-10-16T02:43:09;95156.72;;;9.80;100.00
6833;BME280;3454;42.654;23.378;2022-10-16T02:45:35;95156.16;;;9.77;100.00
6833;BME280;3454;42.654;23.378;2022-10-16T02:48:01;95152.56;;;9.68;100.00
6833;BME280;3454;42.654;23.378;2022-10-16T02:50:26;95139.16;;;9.66;100.00
6833;BME280;3454;42.654;23.378;2022-10-16T02:52:52;95136.38;;;9.58;100.00
6833;BME280;3454;42.654;23.378;2022-10-16T02:55:17;95145.97;;;9.66;100.00
6833;BME280;3454;42.654;23.378;2022-10-16T02:57:43;95158.88;;;9.63;100.00
6833;BME280;3454;42.654;23.378;2022-10-16T03:00:13;95165.13;;;9.70;100.00
6833;BME280;3454;42.654;23.378;2022-10-16T03:02:39;95171.91;;;9.58;100.00
6833;BME280;3454;42.654;23.378;2022-10-16T03:05:05;95171.66;;;9.50;100.00
6833;BME280;3454;42.654;23.378;2022-10-16T03:07:30;95152.94;;;9.40;100.00
6833;BME280;3454;42.654;23.378;2022-10-16T03:09:56;95154.13;;;9.47;100.00
6833;BME280;3454;42.654;23.378;2022-10-16T03:12:21;95148.03;;;9.26;100.00
6833;BME280;3454;42.654;23.378;2022-10-16T03:14:47;95159.22;;;9.23;100.00
6833;BME280;3454;42.654;23.378;2022-10-16T03:17:12;95157.88;;;9.30;100.00
6833;BME280;3454;42.654;23.378;2022-10-16T03:19:38;95163.16;;;9.27;100.00
6833;BME280;3454;42.654;23.378;2022-10-16T03:22:03;95166.47;;;9.52;100.00
6833;BME280;3454;42.654;23.378;2022-10-16T03:24:29;95167.97;;;9.43;100.00
6833;BME280;3454;42.654;23.378;2022-10-16T03:26:54;95176.97;;;9.58;100.00
6833;BME280;3454;42.654;23.378;2022-10-16T03:29:20;95180.72;;;9.65;100.00
6833;BME280;3454;42.654;23.378;2022-10-16T03:31:45;95183.00;;;9.57;100.00
6833;BME280;3454;42.654;23.378;2022-10-16T03:34:11;95173.34;;;9.39;100.00
6833;BME280;3454;42.654;23.378;2022-10-16T03:36:36;95178.75;;;9.34;100.00
6833;BME280;3454;42.654;23.378;2022-10-16T03:39:02;95178.03;;;9.21;100.00
6833;BME280;3454;42.654;23.378;2022-10-16T03:41:27;95174.25;;;9.38;100.00
6833;BME280;3454;42.654;23.378;2022-10-16T03:43:53;95171.41;;;9.42;100.00
6833;BME280;3454;42.654;23.378;2022-10-16T03:46:18;95180.09;;;9.51;100.00
6833;BME280;3454;42.654;23.378;2022-10-16T03:48:44;95176.34;;;9.44;100.00
6833;BME280;3454;42.654;23.378;2022-10-16T03:51:09;95179.31;;;9.38;100.00
6833;BME280;3454;42.654;23.378;2022-10-16T03:53:34;95175.66;;;9.07;100.00
6833;BME280;3454;42.654;23.378;2022-10-16T03:56:00;95168.75;;;9.09;100.00
6833;BME280;3454;42.654;23.378;2022-10-16T03:58:26;95174.78;;;9.19;100.00
6833;BME280;3454;42.654;23.378;2022-10-16T04:00:51;95173.47;;;9.13;100.00
6833;BME280;3454;42.654;23.378;2022-10-16T04:03:17;95163.06;;;9.05;100.00
6833;BME280;3454;42.654;23.378;2022-10-16T04:05:44;95163.00;;;9.18;100.00
6833;BME280;3454;42.654;23.378;2022-10-16T04:08:09;95174.81;;;9.30;100.00
6833;BME280;3454;42.654;23.378;2022-10-16T04:10:35;95180.59;;;9.32;100.00
6833;BME280;3454;42.654;23.378;2022-10-16T04:13:00;95163.69;;;9.20;100.00
6833;BME280;3454;42.654;23.378;2022-10-16T04:15:26;95168.66;;;9.21;100.00
6833;BME280;3454;42.654;23.378;2022-10-16T04:17:52;95177.72;;;9.37;100.00
6833;BME280;3454;42.654;23.378;2022-10-16T04:20:18;95192.06;;;9.49;100.00
6833;BME280;3454;42.654;23.378;2022-10-16T04:22:44;95180.59;;;9.32;100.00
6833;BME280;3454;42.654;23.378;2022-10-16T04:25:09;95182.56;;;9.40;100.00
6833;BME280;3454;42.654;23.378;2022-10-16T04:27:36;95192.06;;;9.49;100.00
6833;BME280;3454;42.654;23.378;2022-10-16T04:30:02;95194.06;;;9.56;100.00
6833;BME280;3454;42.654;23.378;2022-10-16T04:32:28;95196.13;;;9.51;100.00
6833;BME280;3454;42.654;23.378;2022-10-16T04:34:53;95191.06;;;9.51;100.00
6833;BME280;3454;42.654;23.378;2022-10-16T04:37:18;95193.09;;;9.46;100.00
6833;BME280;3454;42.654;23.378;2022-10-16T04:39:44;95192.63;;;9.41;100.00
6833;BME280;3454;42.654;23.378;2022-10-16T04:42:10;95197.78;;;9.40;100.00
6833;BME280;3454;42.654;23.378;2022-10-16T04:44:35;95191.44;;;9.34;100.00
6833;BME280;3454;42.654;23.378;2022-10-16T04:47:01;95216.19;;;9.54;100.00
6833;BME280;3454;42.654;23.378;2022-10-16T04:49:26;95210.75;;;9.48;100.00
6833;BME280;3454;42.654;23.378;2022-10-16T04:51:52;95208.69;;;9.53;100.00
6833;BME280;3454;42.654;23.378;2022-10-16T04:54:17;95227.81;;;9.69;100.00
6833;BME280;3454;42.654;23.378;2022-10-16T04:56:42;95210.53;;;9.51;100.00
6833;BME280;3454;42.654;23.378;2022-10-16T04:59:13;95213.19;;;9.49;100.00
6833;BME280;3454;42.654;23.378;2022-10-16T05:01:39;95212.91;;;9.65;100.00
6833;BME280;3454;42.654;23.378;2022-10-16T05:04:04;95226.59;;;9.97;100.00
6833;BME280;3454;42.654;23.378;2022-10-16T05:06:30;95241.44;;;9.79;100.00
6833;BME280;3454;42.654;23.378;2022-10-16T05:08:56;95232.63;;;9.61;100.00
6833;BME280;3454;42.654;23.378;2022-10-16T05:11:21;95237.03;;;9.70;100.00
6833;BME280;3454;42.654;23.378;2022-10-16T05:13:46;95230.44;;;9.68;100.00
6833;BME280;3454;42.654;23.378;2022-10-16T05:16:12;95227.69;;;9.71;100.00
6833;BME280;3454;42.654;23.378;2022-10-16T05:18:38;95264.56;;;9.98;100.00
6833;BME280;3454;42.654;23.378;2022-10-16T05:21:03;95270.34;;;10.00;100.00
6833;BME280;3454;42.654;23.378;2022-10-16T05:23:28;95268.56;;;9.79;100.00
6833;BME280;3454;42.654;23.378;2022-10-16T05:25:58;95247.19;;;9.70;100.00
6833;BME280;3454;42.654;23.378;2022-10-16T05:28:26;95289.25;;;9.85;100.00
6833;BME280;3454;42.654;23.378;2022-10-16T05:30:51;95294.00;;;9.66;100.00
6833;BME280;3454;42.654;23.378;2022-10-16T05:33:17;95250.38;;;9.38;100.00
6833;BME280;3454;42.654;23.378;2022-10-16T05:35:43;95249.31;;;9.29;100.00
6833;BME280;3454;42.654;23.378;2022-10-16T05:38:09;95265.13;;;9.32;100.00
6833;BME280;3454;42.654;23.378;2022-10-16T05:40:34;95240.06;;;9.28;100.00
6833;BME280;3454;42.654;23.378;2022-10-16T05:43:00;95228.63;;;9.22;100.00
6833;BME280;3454;42.654;23.378;2022-10-16T05:45:26;95231.50;;;9.18;100.00
6833;BME280;3454;42.654;23.378;2022-10-16T05:47:51;95235.38;;;9.35;100.00
6833;BME280;3454;42.654;23.378;2022-10-16T05:50:17;95258.53;;;9.30;100.00
6833;BME280;3454;42.654;23.378;2022-10-16T05:52:42;95246.72;;;9.18;100.00
6833;BME280;3454;42.654;23.378;2022-10-16T05:55:08;95235.28;;;9.12;100.00
6833;BME280;3454;42.654;23.378;2022-10-16T05:57:33;95246.16;;;9.25;100.00
6833;BME280;3454;42.654;23.378;2022-10-16T05:59:59;95266.22;;;9.41;100.00
6833;BME280;3454;42.654;23.378;2022-10-16T06:02:24;95257.13;;;9.26;100.00
6833;BME280;3454;42.654;23.378;2022-10-16T06:04:51;95265.94;;;9.33;100.00
6833;BME280;3454;42.654;23.378;2022-10-16T06:07:18;95270.78;;;9.36;100.00
6833;BME280;3454;42.654;23.378;2022-10-16T06:09:44;95257.13;;;9.26;100.00
6833;BME280;3454;42.654;23.378;2022-10-16T06:12:12;95274.31;;;9.46;100.00
6833;BME280;3454;42.654;23.378;2022-10-16T06:14:38;95293.53;;;9.61;100.00
6833;BME280;3454;42.654;23.378;2022-10-16T06:17:03;95283.31;;;9.50;100.00
6833;BME280;3454;42.654;23.378;2022-10-16T06:19:28;95277.25;;;9.64;100.00
6833;BME280;3454;42.654;23.378;2022-10-16T06:21:54;95292.75;;;9.72;100.00
6833;BME280;3454;42.654;23.378;2022-10-16T06:24:19;95298.34;;;9.77;100.00
6833;BME280;3454;42.654;23.378;2022-10-16T06:26:45;95303.22;;;9.91;100.00
6833;BME280;3454;42.654;23.378;2022-10-16T06:29:10;95317.44;;;9.93;100.00
6833;BME280;3454;42.654;23.378;2022-10-16T06:31:36;95317.28;;;10.07;100.00
6833;BME280;3454;42.654;23.378;2022-10-16T06:34:01;95323.09;;;10.21;100.00
6833;BME280;3454;42.654;23.378;2022-10-16T06:36:28;95349.59;;;10.29;100.00
6833;BME280;3454;42.654;23.378;2022-10-16T06:38:54;95338.72;;;10.27;100.00
6833;BME280;3454;42.654;23.378;2022-10-16T06:41:21;95326.59;;;10.31;100.00
6833;BME280;3454;42.654;23.378;2022-10-16T06:43:47;95342.56;;;10.44;100.00
6833;BME280;3454;42.654;23.378;2022-10-16T06:46:14;95316.19;;;10.23;100.00
6833;BME280;3454;42.654;23.378;2022-10-16T06:48:40;95297.38;;;10.25;100.00
6833;BME280;3454;42.654;23.378;2022-10-16T06:51:10;95318.78;;;10.45;100.00
6833;BME280;3454;42.654;23.378;2022-10-16T06:53:39;95319.25;;;10.61;100.00
6833;BME280;3454;42.654;23.378;2022-10-16T06:56:10;95338.00;;;10.71;100.00
6833;BME280;3454;42.654;23.378;2022-10-16T06:58:36;95350.72;;;10.82;100.00
6833;BME280;3454;42.654;23.378;2022-10-16T07:01:02;95364.25;;;10.93;100.00
6833;BME280;3454;42.654;23.378;2022-10-16T07:03:28;95371.97;;;10.70;100.00
6833;BME280;3454;42.654;23.378;2022-10-16T07:05:53;95409.03;;;11.18;100.00
6833;BME280;3454;42.654;23.378;2022-10-16T07:08:19;95387.28;;;11.25;100.00
6833;BME280;3454;42.654;23.378;2022-10-16T07:10:44;95373.66;;;11.26;100.00
6833;BME280;3454;42.654;23.378;2022-10-16T07:13:10;95380.47;;;11.37;100.00
6833;BME280;3454;42.654;23.378;2022-10-16T07:15:39;95372.69;;;11.49;100.00
6833;BME280;3454;42.654;23.378;2022-10-16T07:18:04;95395.72;;;11.48;100.00
6833;BME280;3454;42.654;23.378;2022-10-16T07:20:29;95450.25;;;11.78;99.60
6833;BME280;3454;42.654;23.378;2022-10-16T07:22:55;95433.72;;;11.73;99.55
6833;BME280;3454;42.654;23.378;2022-10-16T07:25:20;95397.50;;;11.69;100.00
6833;BME280;3454;42.654;23.378;2022-10-16T07:27:46;95400.03;;;11.69;100.00
6833;BME280;3454;42.654;23.378;2022-10-16T07:30:11;95410.19;;;11.92;100.00
6833;BME280;3454;42.654;23.378;2022-10-16T07:32:37;95421.31;;;11.68;100.00
6833;BME280;3454;42.654;23.378;2022-10-16T07:35:02;95415.38;;;11.90;100.00
6833;BME280;3454;42.654;23.378;2022-10-16T07:37:34;95455.06;;;12.15;97.62
6833;BME280;3454;42.654;23.378;2022-10-16T07:40:00;95473.88;;;12.34;96.19
6833;BME280;3454;42.654;23.378;2022-10-16T07:42:27;95459.44;;;12.24;96.44
6833;BME280;3454;42.654;23.378;2022-10-16T07:44:52;95433.63;;;12.17;98.01
6833;BME280;3454;42.654;23.378;2022-10-16T07:47:17;95331.75;;;12.47;100.00
6833;BME280;3454;42.654;23.378;2022-10-16T07:49:43;95411.22;;;12.52;100.00
6833;BME280;3454;42.654;23.378;2022-10-16T07:52:08;95431.94;;;12.59;99.99
6833;BME280;3454;42.654;23.378;2022-10-16T07:54:34;95461.44;;;12.73;97.82
6833;BME280;3454;42.654;23.378;2022-10-16T07:56:59;95498.97;;;12.93;93.42
6833;BME280;3454;42.654;23.378;2022-10-16T07:59:25;95502.16;;;13.06;93.09
6833;BME280;3454;42.654;23.378;2022-10-16T08:01:50;95503.03;;;13.16;92.21
6833;BME280;3454;42.654;23.378;2022-10-16T08:04:15;95525.19;;;13.15;89.96
6833;BME280;3454;42.654;23.378;2022-10-16T08:06:41;95509.03;;;13.26;91.53
6833;BME280;3454;42.654;23.378;2022-10-16T08:09:08;95553.81;;;13.51;88.20
6833;BME280;3454;42.654;23.378;2022-10-16T08:11:34;95585.16;;;13.73;86.27
6833;BME280;3454;42.654;23.378;2022-10-16T08:13:59;95598.09;;;13.81;84.23
6833;BME280;3454;42.654;23.378;2022-10-16T08:16:24;95598.56;;;13.96;83.44
6833;BME280;3454;42.654;23.378;2022-10-16T08:18:50;95577.50;;;14.03;83.94
6833;BME280;3454;42.654;23.378;2022-10-16T08:21:18;95578.06;;;14.16;83.99
6833;BME280;3454;42.654;23.378;2022-10-16T08:23:44;95571.38;;;14.25;83.70
6833;BME280;3454;42.654;23.378;2022-10-16T08:26:11;95573.94;;;14.55;83.59
6833;BME280;3454;42.654;23.378;2022-10-16T08:28:37;95610.78;;;14.92;81.72
6833;BME280;3454;42.654;23.378;2022-10-16T08:31:12;95622.25;;;15.07;79.87
6833;BME280;3454;42.654;23.378;2022-10-16T08:33:39;95632.91;;;15.32;79.33
6833;BME280;3454;42.654;23.378;2022-10-16T08:36:06;95652.53;;;15.61;77.35
6833;BME280;3454;42.654;23.378;2022-10-16T08:38:32;95671.94;;;15.83;76.33
6833;BME280;3454;42.654;23.378;2022-10-16T08:48:50;95724.72;;;16.97;71.58
6833;BME280;3454;42.654;23.378;2022-10-16T08:51:24;95782.84;;;17.35;68.08
6833;BME280;3454;42.654;23.378;2022-10-16T08:53:59;95765.28;;;17.57;68.08
6833;BME280;3454;42.654;23.378;2022-10-16T08:56:26;95814.09;;;17.67;65.49
6833;BME280;3454;42.654;23.378;2022-10-16T08:58:53;95896.22;;;17.96;61.43
6833;BME280;3454;42.654;23.378;2022-10-16T09:01:21;95892.16;;;18.03;60.66
6833;BME280;3454;42.654;23.378;2022-10-16T09:06:47;95824.59;;;18.54;61.79
6833;BME280;3454;42.654;23.378;2022-10-16T09:12:24;95886.38;;;19.40;58.77
6833;BME280;3454;42.654;23.378;2022-10-16T09:17:52;95912.34;;;19.21;55.34
6833;BME280;3454;42.654;23.378;2022-10-16T09:25:29;95894.94;;;19.74;54.70
6833;BME280;3454;42.654;23.378;2022-10-16T09:27:55;95972.97;;;19.68;52.13
6833;BME280;3454;42.654;23.378;2022-10-16T09:30:21;95953.06;;;19.86;52.36
6833;BME280;3454;42.654;23.378;2022-10-16T09:32:50;95956.75;;;19.84;51.82
6833;BME280;3454;42.654;23.378;2022-10-16T09:35:20;95993.13;;;19.98;50.85
6833;BME280;3454;42.654;23.378;2022-10-16T09:37:48;95938.72;;;20.26;51.54
6833;BME280;3454;42.654;23.378;2022-10-16T09:40:32;95981.44;;;20.54;50.32
6833;BME280;3454;42.654;23.378;2022-10-16T09:43:56;96056.63;;;20.43;47.91
6833;BME280;3454;42.654;23.378;2022-10-16T09:46:27;96054.28;;;20.57;47.40
6833;BME280;3454;42.654;23.378;2022-10-16T09:48:58;96022.63;;;20.63;47.71
6833;BME280;3454;42.654;23.378;2022-10-16T09:51:30;96012.34;;;20.96;47.72
6833;BME280;3454;42.654;23.378;2022-10-16T09:54:01;95993.16;;;21.22;48.16
6833;BME280;3454;42.654;23.378;2022-10-16T09:56:32;96027.75;;;21.45;47.09
6833;BME280;3454;42.654;23.378;2022-10-16T09:59:10;96051.81;;;21.78;46.04
6833;BME280;3454;42.654;23.378;2022-10-16T10:01:39;96091.31;;;22.04;44.71
6833;BME280;3454;42.654;23.378;2022-10-16T10:04:05;96095.16;;;22.24;44.29
6833;BME280;3454;42.654;23.378;2022-10-16T10:06:53;96124.41;;;22.49;43.32
6833;BME280;3454;42.654;23.378;2022-10-16T10:09:37;96105.78;;;22.53;43.31
6833;BME280;3454;42.654;23.378;2022-10-16T10:12:05;96097.25;;;22.29;42.86
6833;BME280;3454;42.654;23.378;2022-10-16T10:14:52;96088.72;;;21.48;42.54
6833;BME280;3454;42.654;23.378;2022-10-16T10:17:21;96007.50;;;21.01;44.24
6833;BME280;3454;42.654;23.378;2022-10-16T10:24:44;96080.31;;;22.02;42.23
6833;BME280;3454;42.654;23.378;2022-10-16T10:27:15;96040.78;;;22.08;43.05
6833;BME280;3454;42.654;23.378;2022-10-16T10:32:25;96038.91;;;22.80;42.91
6833;BME280;3454;42.654;23.378;2022-10-16T10:35:08;96087.94;;;21.88;41.33
6833;BME280;3454;42.654;23.378;2022-10-16T10:37:48;96081.47;;;21.92;41.47
6833;BME280;3454;42.654;23.378;2022-10-16T10:43:26;96068.00;;;22.59;41.55
6833;BME280;3454;42.654;23.378;2022-10-16T10:45:59;96121.31;;;22.53;40.05
6833;BME280;3454;42.654;23.378;2022-10-16T10:51:36;96199.56;;;22.57;37.72
6833;BME280;3454;42.654;23.378;2022-10-16T10:54:20;96228.78;;;22.11;36.77
6833;BME280;3454;42.654;23.378;2022-10-16T11:07:58;96144.38;;;22.32;38.13
6833;BME280;3454;42.654;23.378;2022-10-16T11:10:42;96125.84;;;22.68;38.30
6833;BME280;3454;42.654;23.378;2022-10-16T11:15:47;96216.38;;;22.93;35.75
6833;BME280;3454;42.654;23.378;2022-10-16T11:18:18;96214.59;;;22.94;35.89
6833;BME280;3454;42.654;23.378;2022-10-16T11:20:52;96138.44;;;23.09;37.25
6833;BME280;3454;42.654;23.378;2022-10-16T11:23:39;96212.84;;;23.17;35.42
6833;BME280;3454;42.654;23.378;2022-10-16T11:26:14;96238.56;;;22.96;34.58
6833;BME280;3454;42.654;23.378;2022-10-16T11:28:51;96119.78;;;22.83;36.82
6833;BME280;3454;42.654;23.378;2022-10-16T11:36:53;96071.72;;;22.95;37.65
6833;BME280;3454;42.654;23.378;2022-10-16T11:39:26;96070.97;;;23.09;37.94
6833;BME280;3454;42.654;23.378;2022-10-16T11:42:10;96073.66;;;23.24;37.70
6833;BME280;3454;42.654;23.378;2022-10-16T11:45:02;96136.16;;;22.84;36.20
6833;BME280;3454;42.654;23.378;2022-10-16T11:47:40;96133.47;;;23.00;36.65
6833;BME280;3454;42.654;23.378;2022-10-16T11:50:33;96045.16;;;22.93;38.19
6833;BME280;3454;42.654;23.378;2022-10-16T11:55:31;96094.28;;;23.17;37.31
6833;BME280;3454;42.654;23.378;2022-10-16T11:58:04;96084.06;;;22.93;37.62
6833;BME280;3454;42.654;23.378;2022-10-16T12:00:52;96051.38;;;23.07;38.00
6833;BME280;3454;42.654;23.378;2022-10-16T12:06:28;96065.09;;;22.54;37.80
6833;BME280;3454;42.654;23.378;2022-10-16T12:08:58;96116.50;;;22.89;36.05
6833;BME280;3454;42.654;23.378;2022-10-16T12:16:58;96074.50;;;22.94;37.02
6833;BME280;3454;42.654;23.378;2022-10-16T12:19:29;95498.34;;;22.89;52.21
6833;BME280;3454;42.654;23.378;2022-10-16T12:21:59;96075.81;;;22.90;37.79
6833;BME280;3454;42.654;23.378;2022-10-16T12:24:29;96007.22;;;22.92;39.08
6833;BME280;3454;42.654;23.378;2022-10-16T12:26:56;96104.31;;;22.59;36.50
6833;BME280;3454;42.654;23.378;2022-10-16T12:31:54;96123.56;;;22.56;36.11
6833;BME280;3454;42.654;23.378;2022-10-16T12:34:24;96091.63;;;22.72;36.71
6833;BME280;3454;42.654;23.378;2022-10-16T12:36:51;96079.00;;;22.69;37.12
6833;BME280;3454;42.654;23.378;2022-10-16T12:39:22;96058.25;;;22.69;37.56
6833;BME280;3454;42.654;23.378;2022-10-16T12:42:00;96075.72;;;22.75;36.96
6833;BME280;3454;42.654;23.378;2022-10-16T12:44:32;96100.31;;;22.87;36.30
6833;BME280;3454;42.654;23.378;2022-10-16T12:46:57;96132.00;;;22.67;35.94
6833;BME280;3454;42.654;23.378;2022-10-16T12:49:34;96042.75;;;21.98;37.47
6833;BME280;3454;42.654;23.378;2022-10-16T12:52:00;95978.94;;;22.13;39.01
6833;BME280;3454;42.654;23.378;2022-10-16T12:54:36;96039.81;;;22.56;37.76
6833;BME280;3454;42.654;23.378;2022-10-16T12:57:19;95990.56;;;22.56;38.90
6833;BME280;3454;42.654;23.378;2022-10-16T13:24:26;95962.72;;;21.48;39.19
6833;BME280;3454;42.654;23.378;2022-10-16T13:29:54;95933.16;;;21.43;39.79
6833;BME280;3454;42.654;23.378;2022-10-16T13:32:26;95951.59;;;21.24;39.27
6833;BME280;3454;42.654;23.378;2022-10-16T13:34:52;95932.81;;;20.98;39.88
6833;BME280;3454;42.654;23.378;2022-10-16T13:37:21;95890.00;;;20.71;40.88
6833;BME280;3454;42.654;23.378;2022-10-16T13:39:47;95896.97;;;20.62;40.61
6833;BME280;3454;42.654;23.378;2022-10-16T13:42:23;95893.75;;;20.60;40.55
6833;BME280;3454;42.654;23.378;2022-10-16T13:44:52;95914.72;;;20.81;40.33
6833;BME280;3454;42.654;23.378;2022-10-16T13:47:26;95935.25;;;20.83;39.80
6833;BME280;3454;42.654;23.378;2022-10-16T13:50:18;95924.44;;;20.96;39.96
6833;BME280;3454;42.654;23.378;2022-10-16T13:52:44;95949.19;;;21.14;39.38
6833;BME280;3454;42.654;23.378;2022-10-16T13:55:18;95885.84;;;21.02;40.93
6833;BME280;3454;42.654;23.378;2022-10-16T13:57:44;95568.91;;;21.22;50.63
6833;BME280;3454;42.654;23.378;2022-10-16T14:00:25;95575.22;;;21.42;50.71
6833;BME280;3454;42.654;23.378;2022-10-16T14:03:04;95578.31;;;21.60;51.13
6833;BME280;3454;42.654;23.378;2022-10-16T14:05:31;95600.00;;;21.59;50.09
6833;BME280;3454;42.654;23.378;2022-10-16T14:07:57;95828.44;;;21.53;43.67
6833;BME280;3454;42.654;23.378;2022-10-16T14:10:27;95653.50;;;21.44;48.63
6833;BME280;3454;42.654;23.378;2022-10-16T14:13:17;95700.44;;;21.33;47.26
6833;BME280;3454;42.654;23.378;2022-10-16T14:15:47;95578.44;;;21.44;51.02
6833;BME280;3454;42.654;23.378;2022-10-16T14:18:20;95695.31;;;21.56;47.67
6833;BME280;3454;42.654;23.378;2022-10-16T14:20:48;95733.91;;;21.65;47.01
6833;BME280;3454;42.654;23.378;2022-10-16T14:23:23;95740.16;;;21.79;46.94
6833;BME280;3454;42.654;23.378;2022-10-16T14:25:53;95980.63;;;21.74;40.56
6833;BME280;3454;42.654;23.378;2022-10-16T14:28:21;95976.31;;;21.50;40.55
6833;BME280;3454;42.654;23.378;2022-10-16T14:30:59;95976.81;;;21.14;40.27
6833;BME280;3454;42.654;23.378;2022-10-16T14:33:32;95920.88;;;20.88;41.38
6833;BME280;3454;42.654;23.378;2022-10-16T14:38:41;95977.72;;;20.64;39.96
6833;BME280;3454;42.654;23.378;2022-10-16T14:41:08;95932.94;;;20.40;41.05
6833;BME280;3454;42.654;23.378;2022-10-16T14:43:42;95941.31;;;20.34;40.79
6833;BME280;3454;42.654;23.378;2022-10-16T14:46:16;95885.22;;;19.68;42.04
6833;BME280;3454;42.654;23.378;2022-10-16T14:48:47;95878.75;;;19.64;42.36
6833;BME280;3454;42.654;23.378;2022-10-16T14:51:15;95856.13;;;19.50;42.89
6833;BME280;3454;42.654;23.378;2022-10-16T14:53:41;95828.56;;;19.51;43.46
6833;BME280;3454;42.654;23.378;2022-10-16T14:56:09;95820.22;;;19.31;43.69
6833;BME280;3454;42.654;23.378;2022-10-16T14:58:39;95813.69;;;19.19;43.81
6833;BME280;3454;42.654;23.378;2022-10-16T15:01:05;95805.59;;;19.06;44.35
6833;BME280;3454;42.654;23.378;2022-10-16T15:03:32;95770.66;;;18.78;45.35
6833;BME280;3454;42.654;23.378;2022-10-16T15:05:58;95759.88;;;18.57;45.87
6833;BME280;3454;42.654;23.378;2022-10-16T15:08:23;95711.41;;;18.34;46.87
6833;BME280;3454;42.654;23.378;2022-10-16T15:10:48;95709.00;;;18.33;46.95